sensor_id;sensor_type;location;lat;lon;timestamp;P1;durP1;ratioP1;P2;durP2;ratioP2
24567;SDS011;12731;52.182;8.716;2023-01-19T00:00:11;18.38;;;10.90;;
24567;SDS011;12731;52.182;8.716;2023-01-19T00:02:42;17.42;;;11.63;;
24567;SDS011;12731;52.182;8.716;2023-01-19T00:05:12;16.50;;;10.65;;
24567;SDS011;12731;52.182;8.716;2023-01-19T00:07:39;16.75;;;10.88;;
24567;SDS011;12731;52.182;8.716;2023-01-19T00:10:07;17.80;;;11.32;;
24567;SDS011;12731;52.182;8.716;2023-01-19T00:12:34;18.52;;;11.82;;
24567;SDS011;12731;52.182;8.716;2023-01-19T00:15:01;18.38;;;12.05;;
24567;SDS011;12731;52.182;8.716;2023-01-19T00:17:27;18.17;;;12.10;;
24567;SDS011;12731;52.182;8.716;2023-01-19T00:19:54;16.88;;;12.13;;
24567;SDS011;12731;52.182;8.716;2023-01-19T00:22:20;20.33;;;12.70;;
24567;SDS011;12731;52.182;8.716;2023-01-19T00:24:46;20.33;;;12.00;;
24567;SDS011;12731;52.182;8.716;2023-01-19T00:27:13;16.13;;;11.48;;
24567;SDS011;12731;52.182;8.716;2023-01-19T00:29:39;17.10;;;12.00;;
24567;SDS011;12731;52.182;8.716;2023-01-19T00:32:06;20.92;;;12.68;;
24567;SDS011;12731;52.182;8.716;2023-01-19T00:34:32;18.05;;;11.93;;
24567;SDS011;12731;52.182;8.716;2023-01-19T00:37:15;17.95;;;12.95;;
24567;SDS011;12731;52.182;8.716;2023-01-19T00:39:41;17.83;;;12.50;;
24567;SDS011;12731;52.182;8.716;2023-01-19T00:42:10;18.15;;;12.90;;
24567;SDS011;12731;52.182;8.716;2023-01-19T00:44:56;17.33;;;12.10;;
24567;SDS011;12731;52.182;8.716;2023-01-19T00:47:22;20.00;;;12.55;;
24567;SDS011;12731;52.182;8.716;2023-01-19T00:49:49;20.83;;;13.27;;
24567;SDS011;12731;52.182;8.716;2023-01-19T00:52:15;20.95;;;12.88;;
24567;SDS011;12731;52.182;8.716;2023-01-19T00:54:42;19.70;;;13.73;;
24567;SDS011;12731;52.182;8.716;2023-01-19T00:57:08;19.42;;;13.90;;
24567;SDS011;12731;52.182;8.716;2023-01-19T00:59:34;19.63;;;13.50;;
24567;SDS011;12731;52.182;8.716;2023-01-19T01:02:01;21.73;;;13.75;;
24567;SDS011;12731;52.182;8.716;2023-01-19T01:04:28;19.33;;;13.60;;
24567;SDS011;12731;52.182;8.716;2023-01-19T01:06:55;21.63;;;13.02;;
24567;SDS011;12731;52.182;8.716;2023-01-19T01:09:21;18.23;;;12.85;;
24567;SDS011;12731;52.182;8.716;2023-01-19T01:11:48;19.77;;;14.07;;
24567;SDS011;12731;52.182;8.716;2023-01-19T01:14:16;20.55;;;14.32;;
24567;SDS011;12731;52.182;8.716;2023-01-19T01:16:42;20.42;;;14.48;;
24567;SDS011;12731;52.182;8.716;2023-01-19T01:19:09;19.55;;;14.45;;
24567;SDS011;12731;52.182;8.716;2023-01-19T01:21:35;19.83;;;14.85;;
24567;SDS011;12731;52.182;8.716;2023-01-19T01:24:02;23.35;;;15.10;;
24567;SDS011;12731;52.182;8.716;2023-01-19T01:26:29;21.48;;;14.80;;
24567;SDS011;12731;52.182;8.716;2023-01-19T01:28:55;21.13;;;15.98;;
24567;SDS011;12731;52.182;8.716;2023-01-19T01:31:22;22.75;;;15.27;;
24567;SDS011;12731;52.182;8.716;2023-01-19T01:33:48;22.05;;;15.15;;
24567;SDS011;12731;52.182;8.716;2023-01-19T01:36:15;24.08;;;16.10;;
24567;SDS011;12731;52.182;8.716;2023-01-19T01:38:41;23.20;;;15.73;;
24567;SDS011;12731;52.182;8.716;2023-01-19T01:41:08;21.15;;;15.48;;
24567;SDS011;12731;52.182;8.716;2023-01-19T01:43:45;21.80;;;16.30;;
24567;SDS011;12731;52.182;8.716;2023-01-19T01:46:14;21.85;;;14.85;;
24567;SDS011;12731;52.182;8.716;2023-01-19T01:48:43;21.80;;;15.43;;
24567;SDS011;12731;52.182;8.716;2023-01-19T01:51:15;22.13;;;15.77;;
24567;SDS011;12731;52.182;8.716;2023-01-19T01:54:10;22.73;;;15.85;;
24567;SDS011;12731;52.182;8.716;2023-01-19T01:56:42;22.27;;;15.48;;
24567;SDS011;12731;52.182;8.716;2023-01-19T01:59:11;22.42;;;16.13;;
24567;SDS011;12731;52.182;8.716;2023-01-19T02:01:43;23.40;;;16.35;;
24567;SDS011;12731;52.182;8.716;2023-01-19T02:04:28;20.73;;;14.90;;
24567;SDS011;12731;52.182;8.716;2023-01-19T02:06:55;22.02;;;15.98;;
24567;SDS011;12731;52.182;8.716;2023-01-19T02:09:40;23.55;;;16.42;;
24567;SDS011;12731;52.182;8.716;2023-01-19T02:12:25;24.83;;;16.27;;
24567;SDS011;12731;52.182;8.716;2023-01-19T02:15:17;24.98;;;16.15;;
24567;SDS011;12731;52.182;8.716;2023-01-19T02:17:45;22.63;;;16.05;;
24567;SDS011;12731;52.182;8.716;2023-01-19T02:20:11;24.25;;;16.25;;
24567;SDS011;12731;52.182;8.716;2023-01-19T02:22:41;22.05;;;15.90;;
24567;SDS011;12731;52.182;8.716;2023-01-19T02:25:11;22.27;;;16.92;;
24567;SDS011;12731;52.182;8.716;2023-01-19T02:27:38;22.63;;;16.27;;
24567;SDS011;12731;52.182;8.716;2023-01-19T02:30:04;24.27;;;16.88;;
24567;SDS011;12731;52.182;8.716;2023-01-19T02:32:32;27.00;;;17.60;;
24567;SDS011;12731;52.182;8.716;2023-01-19T02:34:58;24.73;;;17.13;;
24567;SDS011;12731;52.182;8.716;2023-01-19T02:37:25;23.35;;;16.40;;
24567;SDS011;12731;52.182;8.716;2023-01-19T02:39:55;22.92;;;16.13;;
24567;SDS011;12731;52.182;8.716;2023-01-19T02:42:24;22.53;;;15.20;;
24567;SDS011;12731;52.182;8.716;2023-01-19T02:44:53;22.98;;;16.52;;
24567;SDS011;12731;52.182;8.716;2023-01-19T02:47:21;26.45;;;16.95;;
24567;SDS011;12731;52.182;8.716;2023-01-19T02:49:55;23.67;;;17.38;;
24567;SDS011;12731;52.182;8.716;2023-01-19T02:52:22;25.00;;;17.42;;
24567;SDS011;12731;52.182;8.716;2023-01-19T03:00:48;21.70;;;16.55;;
24567;SDS011;12731;52.182;8.716;2023-01-19T03:03:27;24.67;;;16.60;;
24567;SDS011;12731;52.182;8.716;2023-01-19T03:06:03;22.30;;;16.55;;
24567;SDS011;12731;52.182;8.716;2023-01-19T03:08:36;24.40;;;17.02;;
24567;SDS011;12731;52.182;8.716;2023-01-19T03:11:12;21.75;;;17.23;;
24567;SDS011;12731;52.182;8.716;2023-01-19T03:16:41;25.02;;;17.60;;
24567;SDS011;12731;52.182;8.716;2023-01-19T03:19:11;23.58;;;16.00;;
24567;SDS011;12731;52.182;8.716;2023-01-19T03:21:44;25.55;;;17.85;;
24567;SDS011;12731;52.182;8.716;2023-01-19T03:24:13;28.17;;;17.85;;
24567;SDS011;12731;52.182;8.716;2023-01-19T03:26:41;25.23;;;17.77;;
24567;SDS011;12731;52.182;8.716;2023-01-19T03:29:11;25.27;;;17.42;;
24567;SDS011;12731;52.182;8.716;2023-01-19T03:31:39;22.48;;;17.17;;
24567;SDS011;12731;52.182;8.716;2023-01-19T03:34:09;23.30;;;15.95;;
24567;SDS011;12731;52.182;8.716;2023-01-19T03:36:39;27.75;;;16.92;;
24567;SDS011;12731;52.182;8.716;2023-01-19T03:39:11;22.55;;;17.25;;
24567;SDS011;12731;52.182;8.716;2023-01-19T03:41:40;22.00;;;16.17;;
24567;SDS011;12731;52.182;8.716;2023-01-19T03:44:08;22.17;;;17.23;;
24567;SDS011;12731;52.182;8.716;2023-01-19T03:46:37;26.88;;;17.00;;
24567;SDS011;12731;52.182;8.716;2023-01-19T03:49:04;23.33;;;16.60;;
24567;SDS011;12731;52.182;8.716;2023-01-19T03:51:30;24.23;;;17.33;;
24567;SDS011;12731;52.182;8.716;2023-01-19T03:54:01;25.10;;;17.30;;
24567;SDS011;12731;52.182;8.716;2023-01-19T03:56:27;25.45;;;17.58;;
24567;SDS011;12731;52.182;8.716;2023-01-19T03:58:54;23.30;;;16.73;;
24567;SDS011;12731;52.182;8.716;2023-01-19T04:01:22;24.02;;;16.27;;
24567;SDS011;12731;52.182;8.716;2023-01-19T04:03:49;22.65;;;17.05;;
24567;SDS011;12731;52.182;8.716;2023-01-19T04:06:16;23.75;;;17.00;;
24567;SDS011;12731;52.182;8.716;2023-01-19T04:08:46;24.10;;;16.45;;
24567;SDS011;12731;52.182;8.716;2023-01-19T04:11:13;26.92;;;18.08;;
24567;SDS011;12731;52.182;8.716;2023-01-19T04:13:40;21.95;;;16.27;;
24567;SDS011;12731;52.182;8.716;2023-01-19T04:16:08;21.65;;;16.70;;
24567;SDS011;12731;52.182;8.716;2023-01-19T04:18:35;22.00;;;16.88;;
24567;SDS011;12731;52.182;8.716;2023-01-19T04:21:02;22.55;;;15.98;;
24567;SDS011;12731;52.182;8.716;2023-01-19T04:23:29;25.63;;;17.23;;
24567;SDS011;12731;52.182;8.716;2023-01-19T04:25:56;24.73;;;16.80;;
24567;SDS011;12731;52.182;8.716;2023-01-19T04:28:24;25.40;;;16.70;;
24567;SDS011;12731;52.182;8.716;2023-01-19T04:30:51;23.77;;;16.95;;
24567;SDS011;12731;52.182;8.716;2023-01-19T04:33:18;24.88;;;17.33;;
24567;SDS011;12731;52.182;8.716;2023-01-19T04:35:45;22.58;;;16.23;;
24567;SDS011;12731;52.182;8.716;2023-01-19T04:38:11;27.38;;;17.30;;
24567;SDS011;12731;52.182;8.716;2023-01-19T04:40:38;25.05;;;16.88;;
24567;SDS011;12731;52.182;8.716;2023-01-19T04:43:05;22.75;;;15.15;;
24567;SDS011;12731;52.182;8.716;2023-01-19T04:45:31;22.88;;;16.33;;
24567;SDS011;12731;52.182;8.716;2023-01-19T04:47:58;20.77;;;15.07;;
24567;SDS011;12731;52.182;8.716;2023-01-19T04:50:24;22.55;;;16.55;;
24567;SDS011;12731;52.182;8.716;2023-01-19T04:52:51;21.77;;;15.73;;
24567;SDS011;12731;52.182;8.716;2023-01-19T04:55:17;23.35;;;16.27;;
24567;SDS011;12731;52.182;8.716;2023-01-19T04:57:44;20.45;;;15.65;;
24567;SDS011;12731;52.182;8.716;2023-01-19T05:00:11;19.55;;;14.55;;
24567;SDS011;12731;52.182;8.716;2023-01-19T05:02:38;22.25;;;15.43;;
24567;SDS011;12731;52.182;8.716;2023-01-19T05:05:04;21.30;;;15.25;;
24567;SDS011;12731;52.182;8.716;2023-01-19T05:07:31;26.25;;;15.18;;
24567;SDS011;12731;52.182;8.716;2023-01-19T05:09:57;23.77;;;14.65;;
24567;SDS011;12731;52.182;8.716;2023-01-19T05:12:23;20.65;;;14.07;;
24567;SDS011;12731;52.182;8.716;2023-01-19T05:14:50;20.67;;;13.90;;
24567;SDS011;12731;52.182;8.716;2023-01-19T05:17:16;19.92;;;14.50;;
24567;SDS011;12731;52.182;8.716;2023-01-19T05:19:43;22.80;;;14.13;;
24567;SDS011;12731;52.182;8.716;2023-01-19T05:22:09;19.27;;;14.35;;
24567;SDS011;12731;52.182;8.716;2023-01-19T05:24:36;21.27;;;14.20;;
24567;SDS011;12731;52.182;8.716;2023-01-19T05:27:02;16.92;;;12.68;;
24567;SDS011;12731;52.182;8.716;2023-01-19T05:29:29;21.48;;;14.55;;
24567;SDS011;12731;52.182;8.716;2023-01-19T05:31:55;23.20;;;14.63;;
24567;SDS011;12731;52.182;8.716;2023-01-19T05:34:23;19.25;;;14.20;;
24567;SDS011;12731;52.182;8.716;2023-01-19T05:36:49;19.90;;;14.35;;
24567;SDS011;12731;52.182;8.716;2023-01-19T05:39:16;18.13;;;13.68;;
24567;SDS011;12731;52.182;8.716;2023-01-19T05:41:42;24.02;;;14.32;;
24567;SDS011;12731;52.182;8.716;2023-01-19T05:44:11;19.20;;;13.32;;
24567;SDS011;12731;52.182;8.716;2023-01-19T05:46:38;20.33;;;13.68;;
24567;SDS011;12731;52.182;8.716;2023-01-19T05:49:05;17.77;;;13.75;;
24567;SDS011;12731;52.182;8.716;2023-01-19T05:51:33;18.67;;;13.05;;
24567;SDS011;12731;52.182;8.716;2023-01-19T05:54:03;19.15;;;13.70;;
24567;SDS011;12731;52.182;8.716;2023-01-19T05:56:30;20.90;;;13.57;;
24567;SDS011;12731;52.182;8.716;2023-01-19T05:58:58;20.23;;;13.32;;
24567;SDS011;12731;52.182;8.716;2023-01-19T06:01:25;17.70;;;12.98;;
24567;SDS011;12731;52.182;8.716;2023-01-19T06:03:51;17.92;;;12.90;;
24567;SDS011;12731;52.182;8.716;2023-01-19T06:06:18;17.80;;;12.48;;
24567;SDS011;12731;52.182;8.716;2023-01-19T06:08:44;18.80;;;13.75;;
24567;SDS011;12731;52.182;8.716;2023-01-19T06:11:11;21.45;;;14.15;;
24567;SDS011;12731;52.182;8.716;2023-01-19T06:13:37;22.45;;;14.73;;
24567;SDS011;12731;52.182;8.716;2023-01-19T06:16:07;23.25;;;15.38;;
24567;SDS011;12731;52.182;8.716;2023-01-19T06:18:34;20.50;;;14.57;;
24567;SDS011;12731;52.182;8.716;2023-01-19T06:21:07;24.98;;;14.65;;
24567;SDS011;12731;52.182;8.716;2023-01-19T06:23:34;19.65;;;13.60;;
24567;SDS011;12731;52.182;8.716;2023-01-19T06:26:01;19.55;;;14.68;;
24567;SDS011;12731;52.182;8.716;2023-01-19T06:28:28;21.98;;;14.32;;
24567;SDS011;12731;52.182;8.716;2023-01-19T06:30:54;21.10;;;15.45;;
24567;SDS011;12731;52.182;8.716;2023-01-19T06:33:21;22.67;;;14.93;;
24567;SDS011;12731;52.182;8.716;2023-01-19T06:35:50;22.05;;;14.75;;
24567;SDS011;12731;52.182;8.716;2023-01-19T06:38:16;21.33;;;14.70;;
24567;SDS011;12731;52.182;8.716;2023-01-19T06:40:45;27.98;;;16.95;;
24567;SDS011;12731;52.182;8.716;2023-01-19T06:43:16;21.13;;;14.65;;
24567;SDS011;12731;52.182;8.716;2023-01-19T06:45:43;21.00;;;15.15;;
24567;SDS011;12731;52.182;8.716;2023-01-19T06:48:11;22.23;;;16.00;;
24567;SDS011;12731;52.182;8.716;2023-01-19T06:50:37;21.83;;;15.98;;
24567;SDS011;12731;52.182;8.716;2023-01-19T06:53:04;23.70;;;15.95;;
24567;SDS011;12731;52.182;8.716;2023-01-19T06:55:30;20.42;;;15.57;;
24567;SDS011;12731;52.182;8.716;2023-01-19T06:57:57;22.75;;;16.10;;
24567;SDS011;12731;52.182;8.716;2023-01-19T07:00:24;19.33;;;15.75;;
24567;SDS011;12731;52.182;8.716;2023-01-19T07:02:51;20.92;;;14.68;;
24567;SDS011;12731;52.182;8.716;2023-01-19T07:05:18;23.63;;;16.05;;
24567;SDS011;12731;52.182;8.716;2023-01-19T07:07:49;19.98;;;16.55;;
24567;SDS011;12731;52.182;8.716;2023-01-19T07:10:17;20.10;;;15.73;;
24567;SDS011;12731;52.182;8.716;2023-01-19T07:12:43;20.42;;;16.33;;
24567;SDS011;12731;52.182;8.716;2023-01-19T07:15:16;23.92;;;17.35;;
24567;SDS011;12731;52.182;8.716;2023-01-19T07:17:44;23.85;;;17.58;;
24567;SDS011;12731;52.182;8.716;2023-01-19T07:20:11;20.70;;;16.40;;
24567;SDS011;12731;52.182;8.716;2023-01-19T07:22:42;21.60;;;16.60;;
24567;SDS011;12731;52.182;8.716;2023-01-19T07:25:11;22.73;;;16.73;;
24567;SDS011;12731;52.182;8.716;2023-01-19T07:27:38;20.42;;;16.42;;
24567;SDS011;12731;52.182;8.716;2023-01-19T07:30:06;20.00;;;15.68;;
24567;SDS011;12731;52.182;8.716;2023-01-19T07:32:33;19.63;;;15.75;;
24567;SDS011;12731;52.182;8.716;2023-01-19T07:34:59;21.13;;;16.20;;
24567;SDS011;12731;52.182;8.716;2023-01-19T07:37:26;19.90;;;16.67;;
24567;SDS011;12731;52.182;8.716;2023-01-19T07:39:52;22.52;;;17.92;;
24567;SDS011;12731;52.182;8.716;2023-01-19T07:42:19;20.67;;;16.15;;
24567;SDS011;12731;52.182;8.716;2023-01-19T07:44:45;20.00;;;17.25;;
24567;SDS011;12731;52.182;8.716;2023-01-19T07:47:11;22.77;;;17.13;;
24567;SDS011;12731;52.182;8.716;2023-01-19T07:49:38;20.83;;;17.65;;
24567;SDS011;12731;52.182;8.716;2023-01-19T07:52:05;20.15;;;17.25;;
24567;SDS011;12731;52.182;8.716;2023-01-19T07:54:31;21.67;;;17.27;;
24567;SDS011;12731;52.182;8.716;2023-01-19T07:56:58;21.45;;;17.00;;
24567;SDS011;12731;52.182;8.716;2023-01-19T07:59:28;20.02;;;17.17;;
24567;SDS011;12731;52.182;8.716;2023-01-19T08:01:55;21.38;;;17.40;;
24567;SDS011;12731;52.182;8.716;2023-01-19T08:04:25;20.15;;;17.52;;
24567;SDS011;12731;52.182;8.716;2023-01-19T08:06:52;21.15;;;17.73;;
24567;SDS011;12731;52.182;8.716;2023-01-19T08:09:19;20.10;;;17.48;;
24567;SDS011;12731;52.182;8.716;2023-01-19T08:11:46;21.45;;;17.45;;
24567;SDS011;12731;52.182;8.716;2023-01-19T08:14:12;21.52;;;18.40;;
24567;SDS011;12731;52.182;8.716;2023-01-19T08:16:39;19.88;;;17.40;;
24567;SDS011;12731;52.182;8.716;2023-01-19T08:19:05;21.08;;;17.70;;
24567;SDS011;12731;52.182;8.716;2023-01-19T08:21:32;21.20;;;18.02;;
24567;SDS011;12731;52.182;8.716;2023-01-19T08:23:58;23.17;;;19.23;;
24567;SDS011;12731;52.182;8.716;2023-01-19T08:26:26;24.60;;;18.92;;
24567;SDS011;12731;52.182;8.716;2023-01-19T08:28:56;23.70;;;18.60;;
24567;SDS011;12731;52.182;8.716;2023-01-19T08:31:23;24.33;;;19.42;;
24567;SDS011;12731;52.182;8.716;2023-01-19T08:33:51;22.92;;;19.80;;
24567;SDS011;12731;52.182;8.716;2023-01-19T08:36:17;23.92;;;20.05;;
24567;SDS011;12731;52.182;8.716;2023-01-19T08:38:44;25.38;;;20.45;;
24567;SDS011;12731;52.182;8.716;2023-01-19T08:41:11;24.63;;;20.20;;
24567;SDS011;12731;52.182;8.716;2023-01-19T08:43:37;24.98;;;20.15;;
24567;SDS011;12731;52.182;8.716;2023-01-19T08:46:04;26.05;;;21.05;;
24567;SDS011;12731;52.182;8.716;2023-01-19T08:48:31;25.73;;;21.17;;
24567;SDS011;12731;52.182;8.716;2023-01-19T08:50:57;27.00;;;21.00;;
24567;SDS011;12731;52.182;8.716;2023-01-19T08:53:25;25.55;;;20.92;;
24567;SDS011;12731;52.182;8.716;2023-01-19T08:55:55;27.38;;;21.40;;
24567;SDS011;12731;52.182;8.716;2023-01-19T08:58:26;26.38;;;20.02;;
24567;SDS011;12731;52.182;8.716;2023-01-19T09:00:53;26.17;;;21.08;;
24567;SDS011;12731;52.182;8.716;2023-01-19T09:03:20;26.42;;;20.35;;
24567;SDS011;12731;52.182;8.716;2023-01-19T09:05:48;23.88;;;20.42;;
24567;SDS011;12731;52.182;8.716;2023-01-19T09:08:14;24.35;;;19.63;;
24567;SDS011;12731;52.182;8.716;2023-01-19T09:10:45;27.60;;;20.27;;
24567;SDS011;12731;52.182;8.716;2023-01-19T09:13:13;25.45;;;19.90;;
24567;SDS011;12731;52.182;8.716;2023-01-19T09:15:40;22.60;;;17.88;;
24567;SDS011;12731;52.182;8.716;2023-01-19T09:18:14;23.13;;;18.85;;
24567;SDS011;12731;52.182;8.716;2023-01-19T09:20:42;24.08;;;19.67;;
24567;SDS011;12731;52.182;8.716;2023-01-19T09:23:10;24.55;;;19.05;;
24567;SDS011;12731;52.182;8.716;2023-01-19T09:25:38;22.83;;;19.10;;
24567;SDS011;12731;52.182;8.716;2023-01-19T09:28:05;24.67;;;20.10;;
24567;SDS011;12731;52.182;8.716;2023-01-19T09:30:35;28.67;;;21.17;;
24567;SDS011;12731;52.182;8.716;2023-01-19T09:33:06;24.38;;;19.65;;
24567;SDS011;12731;52.182;8.716;2023-01-19T09:35:36;25.33;;;19.80;;
24567;SDS011;12731;52.182;8.716;2023-01-19T09:38:03;25.42;;;19.30;;
24567;SDS011;12731;52.182;8.716;2023-01-19T09:40:32;24.70;;;19.98;;
24567;SDS011;12731;52.182;8.716;2023-01-19T09:45:54;25.07;;;18.93;;
24567;SDS011;12731;52.182;8.716;2023-01-19T09:48:42;24.42;;;18.17;;
24567;SDS011;12731;52.182;8.716;2023-01-19T09:51:24;23.85;;;17.45;;
24567;SDS011;12731;52.182;8.716;2023-01-19T09:56:29;24.77;;;18.83;;
24567;SDS011;12731;52.182;8.716;2023-01-19T09:58:57;23.58;;;18.90;;
24567;SDS011;12731;52.182;8.716;2023-01-19T10:01:36;24.02;;;18.38;;
24567;SDS011;12731;52.182;8.716;2023-01-19T10:06:51;23.10;;;17.52;;
24567;SDS011;12731;52.182;8.716;2023-01-19T10:12:28;22.17;;;16.90;;
24567;SDS011;12731;52.182;8.716;2023-01-19T10:20:49;23.42;;;16.33;;
24567;SDS011;12731;52.182;8.716;2023-01-19T10:23:22;26.02;;;16.65;;
24567;SDS011;12731;52.182;8.716;2023-01-19T10:25:54;23.10;;;16.40;;
24567;SDS011;12731;52.182;8.716;2023-01-19T10:28:22;19.88;;;15.57;;
24567;SDS011;12731;52.182;8.716;2023-01-19T10:30:50;21.35;;;15.40;;
24567;SDS011;12731;52.182;8.716;2023-01-19T10:33:19;24.45;;;16.23;;
24567;SDS011;12731;52.182;8.716;2023-01-19T10:35:45;20.23;;;15.45;;
24567;SDS011;12731;52.182;8.716;2023-01-19T10:38:13;17.88;;;13.98;;
24567;SDS011;12731;52.182;8.716;2023-01-19T10:40:49;20.13;;;14.60;;
24567;SDS011;12731;52.182;8.716;2023-01-19T10:46:00;21.25;;;13.50;;
24567;SDS011;12731;52.182;8.716;2023-01-19T10:48:34;19.80;;;14.05;;
24567;SDS011;12731;52.182;8.716;2023-01-19T10:51:02;20.52;;;14.13;;
24567;SDS011;12731;52.182;8.716;2023-01-19T10:53:29;22.60;;;13.63;;
24567;SDS011;12731;52.182;8.716;2023-01-19T10:56:15;20.17;;;14.25;;
24567;SDS011;12731;52.182;8.716;2023-01-19T10:58:46;16.42;;;11.95;;
24567;SDS011;12731;52.182;8.716;2023-01-19T11:01:14;17.50;;;12.38;;
24567;SDS011;12731;52.182;8.716;2023-01-19T11:03:41;16.33;;;11.65;;
24567;SDS011;12731;52.182;8.716;2023-01-19T11:06:18;17.73;;;11.80;;
24567;SDS011;12731;52.182;8.716;2023-01-19T11:08:45;20.25;;;12.75;;
24567;SDS011;12731;52.182;8.716;2023-01-19T11:11:13;16.50;;;12.20;;
24567;SDS011;12731;52.182;8.716;2023-01-19T11:13:40;15.07;;;11.13;;
24567;SDS011;12731;52.182;8.716;2023-01-19T11:16:13;16.45;;;11.15;;
24567;SDS011;12731;52.182;8.716;2023-01-19T11:18:42;17.13;;;11.68;;
24567;SDS011;12731;52.182;8.716;2023-01-19T11:21:13;15.35;;;10.60;;
24567;SDS011;12731;52.182;8.716;2023-01-19T11:23:43;14.43;;;10.82;;
24567;SDS011;12731;52.182;8.716;2023-01-19T11:29:24;16.92;;;11.00;;
24567;SDS011;12731;52.182;8.716;2023-01-19T11:31:52;19.60;;;10.40;;
24567;SDS011;12731;52.182;8.716;2023-01-19T11:36:56;17.85;;;11.00;;
24567;SDS011;12731;52.182;8.716;2023-01-19T11:39:27;15.45;;;10.23;;
24567;SDS011;12731;52.182;8.716;2023-01-19T11:41:59;16.98;;;10.75;;
24567;SDS011;12731;52.182;8.716;2023-01-19T11:46:59;14.60;;;10.40;;
24567;SDS011;12731;52.182;8.716;2023-01-19T11:54:53;19.42;;;11.93;;
24567;SDS011;12731;52.182;8.716;2023-01-19T11:57:23;21.90;;;12.27;;
24567;SDS011;12731;52.182;8.716;2023-01-19T11:59:49;20.38;;;12.05;;
24567;SDS011;12731;52.182;8.716;2023-01-19T12:02:26;19.30;;;12.40;;
24567;SDS011;12731;52.182;8.716;2023-01-19T12:04:55;25.02;;;13.25;;
24567;SDS011;12731;52.182;8.716;2023-01-19T12:07:27;26.05;;;13.85;;
24567;SDS011;12731;52.182;8.716;2023-01-19T12:10:00;27.05;;;14.75;;
24567;SDS011;12731;52.182;8.716;2023-01-19T12:12:47;33.53;;;17.02;;
24567;SDS011;12731;52.182;8.716;2023-01-19T12:15:18;33.63;;;19.63;;
24567;SDS011;12731;52.182;8.716;2023-01-19T12:17:48;33.78;;;17.17;;
24567;SDS011;12731;52.182;8.716;2023-01-19T12:25:19;27.70;;;13.57;;
24567;SDS011;12731;52.182;8.716;2023-01-19T12:27:47;24.98;;;13.80;;
24567;SDS011;12731;52.182;8.716;2023-01-19T12:30:24;32.42;;;12.88;;
24567;SDS011;12731;52.182;8.716;2023-01-19T12:33:18;23.38;;;12.85;;
24567;SDS011;12731;52.182;8.716;2023-01-19T12:35:59;19.70;;;11.48;;
24567;SDS011;12731;52.182;8.716;2023-01-19T12:38:36;23.85;;;11.38;;
24567;SDS011;12731;52.182;8.716;2023-01-19T12:43:42;18.08;;;10.25;;
24567;SDS011;12731;52.182;8.716;2023-01-19T12:46:18;21.35;;;10.82;;
24567;SDS011;12731;52.182;8.716;2023-01-19T12:48:46;31.77;;;11.25;;
24567;SDS011;12731;52.182;8.716;2023-01-19T12:51:25;24.83;;;11.55;;
24567;SDS011;12731;52.182;8.716;2023-01-19T12:53:55;21.45;;;10.05;;
24567;SDS011;12731;52.182;8.716;2023-01-19T12:56:27;21.40;;;9.85;;
24567;SDS011;12731;52.182;8.716;2023-01-19T12:58:54;22.20;;;10.05;;
24567;SDS011;12731;52.182;8.716;2023-01-19T13:01:21;20.20;;;9.25;;
24567;SDS011;12731;52.182;8.716;2023-01-19T13:04:00;19.08;;;9.07;;
24567;SDS011;12731;52.182;8.716;2023-01-19T13:14:40;17.60;;;8.70;;
24567;SDS011;12731;52.182;8.716;2023-01-19T13:17:23;18.08;;;9.10;;
24567;SDS011;12731;52.182;8.716;2023-01-19T13:20:16;16.73;;;8.55;;
24567;SDS011;12731;52.182;8.716;2023-01-19T13:25:31;21.55;;;8.60;;
24567;SDS011;12731;52.182;8.716;2023-01-19T13:28:00;18.17;;;8.10;;
24567;SDS011;12731;52.182;8.716;2023-01-19T13:30:27;19.33;;;8.40;;
24567;SDS011;12731;52.182;8.716;2023-01-19T13:32:55;22.33;;;8.38;;
24567;SDS011;12731;52.182;8.716;2023-01-19T13:35:28;20.02;;;8.98;;
24567;SDS011;12731;52.182;8.716;2023-01-19T13:37:54;22.38;;;9.98;;
24567;SDS011;12731;52.182;8.716;2023-01-19T13:40:23;21.10;;;8.40;;
24567;SDS011;12731;52.182;8.716;2023-01-19T13:42:52;14.70;;;8.25;;
24567;SDS011;12731;52.182;8.716;2023-01-19T13:45:30;22.45;;;9.68;;
24567;SDS011;12731;52.182;8.716;2023-01-19T13:50:36;27.73;;;9.02;;
24567;SDS011;12731;52.182;8.716;2023-01-19T13:53:14;23.95;;;10.60;;
24567;SDS011;12731;52.182;8.716;2023-01-19T13:55:42;19.52;;;10.48;;
24567;SDS011;12731;52.182;8.716;2023-01-19T13:58:18;22.33;;;11.55;;
24567;SDS011;12731;52.182;8.716;2023-01-19T14:00:47;18.67;;;10.38;;
24567;SDS011;12731;52.182;8.716;2023-01-19T14:05:41;22.15;;;10.43;;
24567;SDS011;12731;52.182;8.716;2023-01-19T14:10:43;22.30;;;10.70;;
24567;SDS011;12731;52.182;8.716;2023-01-19T14:13:34;22.10;;;12.32;;
24567;SDS011;12731;52.182;8.716;2023-01-19T14:16:06;22.98;;;12.48;;
24567;SDS011;12731;52.182;8.716;2023-01-19T14:18:37;24.30;;;12.52;;
24567;SDS011;12731;52.182;8.716;2023-01-19T14:21:05;26.40;;;13.05;;
24567;SDS011;12731;52.182;8.716;2023-01-19T14:23:44;23.95;;;13.23;;
24567;SDS011;12731;52.182;8.716;2023-01-19T14:42:37;27.17;;;15.60;;
24567;SDS011;12731;52.182;8.716;2023-01-19T14:45:33;28.70;;;16.45;;
24567;SDS011;12731;52.182;8.716;2023-01-19T14:48:00;28.88;;;16.55;;
24567;SDS011;12731;52.182;8.716;2023-01-19T14:50:29;34.63;;;18.23;;
24567;SDS011;12731;52.182;8.716;2023-01-19T14:52:59;28.40;;;18.10;;
24567;SDS011;12731;52.182;8.716;2023-01-19T14:55:42;33.33;;;18.45;;
24567;SDS011;12731;52.182;8.716;2023-01-19T14:58:10;31.13;;;18.90;;
24567;SDS011;12731;52.182;8.716;2023-01-19T15:00:38;30.50;;;17.83;;
24567;SDS011;12731;52.182;8.716;2023-01-19T15:03:05;28.90;;;18.40;;
24567;SDS011;12731;52.182;8.716;2023-01-19T15:05:31;31.70;;;19.33;;
24567;SDS011;12731;52.182;8.716;2023-01-19T15:07:58;30.25;;;18.10;;
24567;SDS011;12731;52.182;8.716;2023-01-19T15:10:27;30.90;;;18.85;;
24567;SDS011;12731;52.182;8.716;2023-01-19T15:12:54;28.00;;;18.83;;
24567;SDS011;12731;52.182;8.716;2023-01-19T15:15:30;31.20;;;18.35;;
24567;SDS011;12731;52.182;8.716;2023-01-19T15:18:01;33.13;;;18.67;;
24567;SDS011;12731;52.182;8.716;2023-01-19T15:20:29;36.67;;;18.98;;
24567;SDS011;12731;52.182;8.716;2023-01-19T15:22:55;32.05;;;18.88;;
24567;SDS011;12731;52.182;8.716;2023-01-19T15:25:22;28.98;;;18.23;;
24567;SDS011;12731;52.182;8.716;2023-01-19T15:27:52;34.97;;;18.67;;
24567;SDS011;12731;52.182;8.716;2023-01-19T15:30:24;30.23;;;18.00;;
24567;SDS011;12731;52.182;8.716;2023-01-19T15:32:56;28.33;;;18.52;;
24567;SDS011;12731;52.182;8.716;2023-01-19T15:35:24;34.90;;;19.63;;
24567;SDS011;12731;52.182;8.716;2023-01-19T15:37:51;29.65;;;18.30;;
24567;SDS011;12731;52.182;8.716;2023-01-19T15:40:18;37.72;;;18.75;;
24567;SDS011;12731;52.182;8.716;2023-01-19T15:42:45;31.63;;;19.38;;
24567;SDS011;12731;52.182;8.716;2023-01-19T15:47:44;33.28;;;19.52;;
24567;SDS011;12731;52.182;8.716;2023-01-19T15:50:10;39.33;;;20.70;;
24567;SDS011;12731;52.182;8.716;2023-01-19T15:52:36;40.20;;;23.17;;
24567;SDS011;12731;52.182;8.716;2023-01-19T15:55:03;53.05;;;29.05;;
24567;SDS011;12731;52.182;8.716;2023-01-19T15:57:30;38.85;;;20.02;;
24567;SDS011;12731;52.182;8.716;2023-01-19T15:59:56;49.88;;;21.83;;